Time;durP1;ratioP1;P1;durP2;ratioP2;P2;SDS_P1;SDS_P2;PMS_P1;PMS_P2;Temp;Humidity;BMP_temperature;BMP_pressure;BME280_temperature;BME280_humidity;BME280_pressure;Samples;Min_cycle;Max_cycle;Signal;HPM_P1;HPM_P2
2022/05/17 00:01:04;;;;;;;135.57;28.48;;;;;;;;;;4988723;28;20244;-51
2022/05/17 00:03:30;;;;;;;235.18;44.55;;;;;;;;;;4986351;28;20315;-51
2022/05/17 00:05:56;;;;;;;133.40;27.08;;;;;;;;;;4992514;28;20208;-51
2022/05/17 00:08:22;;;;;;;112.22;23.85;;;;;;;;;;4991220;28;20220;-51
2022/05/17 00:10:48;;;;;;;141.30;28.90;;;;;;;;;;4996162;28;20239;-49
2022/05/17 00:13:14;;;;;;;142.50;30.08;;;;;;;;;;4988786;28;20228;-50
2022/05/17 00:15:43;;;;;;;147.73;30.30;;;;;;;;;;4999760;28;20224;-51
2022/05/17 00:18:11;;;;;;;121.28;26.55;;;;;;;;;;4990473;28;21261;-51
2022/05/17 00:20:37;;;;;;;141.13;29.23;;;;;;;;;;4988409;28;20205;-50
2022/05/17 00:23:03;;;;;;;236.85;44.55;;;;;;;;;;4983263;28;20224;-51
2022/05/17 00:25:29;;;;;;;163.45;33.45;;;;;;;;;;4997509;28;20216;-50
2022/05/17 00:27:55;;;;;;;178.73;34.88;;;;;;;;;;4987516;28;20326;-50
2022/05/17 00:30:21;;;;;;;214.65;44.80;;;;;;;;;;4992969;28;20299;-50
2022/05/17 00:32:47;;;;;;;196.90;38.50;;;;;;;;;;4998607;28;20184;-49
2022/05/17 00:35:14;;;;;;;99.53;24.35;;;;;;;;;;4998828;28;20207;-50
2022/05/17 00:37:40;;;;;;;200.60;42.33;;;;;;;;;;4989033;28;20310;-51
2022/05/17 00:40:07;;;;;;;175.88;35.55;;;;;;;;;;4993408;28;20374;-51
2022/05/17 00:42:33;;;;;;;109.90;25.50;;;;;;;;;;4981081;28;20219;-49
2022/05/17 00:44:59;;;;;;;90.25;21.92;;;;;;;;;;4997915;28;20293;-50
2022/05/17 00:47:29;;;;;;;237.70;45.20;;;;;;;;;;4990730;28;20239;-50
2022/05/17 00:49:58;;;;;;;161.57;33.83;;;;;;;;;;4999038;28;20671;-51
2022/05/17 00:52:26;;;;;;;141.73;29.08;;;;;;;;;;4991007;28;20209;-51
2022/05/17 00:54:54;;;;;;;187.35;35.35;;;;;;;;;;4987157;28;20685;-50
2022/05/17 00:57:42;;;;;;;135.85;28.40;;;;;;;;;;4988728;28;20299;-50
2022/05/17 01:00:14;;;;;;;138.38;28.23;;;;;;;;;;4993205;28;20212;-51
2022/05/17 01:02:42;;;;;;;211.02;40.90;;;;;;;;;;4994863;28;20220;-51
2022/05/17 01:05:08;;;;;;;167.02;33.35;;;;;;;;;;4991611;28;20307;-49
2022/05/17 01:07:39;;;;;;;296.05;54.72;;;;;;;;;;4989014;28;20251;-51
2022/05/17 01:10:05;;;;;;;118.85;24.85;;;;;;;;;;4996355;28;20682;-50
2022/05/17 01:12:31;;;;;;;216.30;39.35;;;;;;;;;;4992123;28;20219;-49
2022/05/17 01:14:57;;;;;;;167.30;32.58;;;;;;;;;;4994369;28;20530;-51
2022/05/17 01:17:23;;;;;;;135.80;26.90;;;;;;;;;;5011449;28;20199;-51
2022/05/17 01:19:49;;;;;;;161.13;31.58;;;;;;;;;;4992210;28;20262;-51
2022/05/17 01:22:17;;;;;;;97.90;22.33;;;;;;;;;;5006537;28;20225;-50
2022/05/17 01:24:43;;;;;;;189.75;36.00;;;;;;;;;;4992822;28;20220;-50
2022/05/17 01:27:12;;;;;;;252.57;48.00;;;;;;;;;;4989889;28;20212;-51
2022/05/17 01:29:43;;;;;;;182.85;35.95;;;;;;;;;;4995879;28;20192;-51
2022/05/17 01:32:09;;;;;;;142.45;30.42;;;;;;;;;;5002748;28;21134;-51
2022/05/17 01:34:36;;;;;;;190.65;37.38;;;;;;;;;;4992514;28;20224;-51
2022/05/17 01:37:02;;;;;;;197.85;38.70;;;;;;;;;;4992855;28;20216;-49
2022/05/17 01:39:28;;;;;;;177.20;34.50;;;;;;;;;;4994946;28;20737;-50
2022/05/17 01:41:54;;;;;;;271.48;49.50;;;;;;;;;;4990499;28;20251;-51
2022/05/17 01:44:20;;;;;;;152.48;32.15;;;;;;;;;;4999463;28;20291;-51
2022/05/17 01:46:46;;;;;;;237.73;45.70;;;;;;;;;;4993363;28;20218;-49
2022/05/17 01:49:12;;;;;;;172.32;37.20;;;;;;;;;;4992342;28;20212;-51
2022/05/17 01:51:38;;;;;;;264.25;50.55;;;;;;;;;;4998091;28;20649;-50
2022/05/17 01:54:04;;;;;;;156.55;32.05;;;;;;;;;;4994326;28;20219;-51
2022/05/17 01:56:30;;;;;;;137.05;28.20;;;;;;;;;;4997038;28;20201;-51
2022/05/17 01:58:57;;;;;;;143.55;29.35;;;;;;;;;;4998829;28;20708;-51
2022/05/17 02:01:23;;;;;;;118.28;24.77;;;;;;;;;;5005829;28;20220;-49
2022/05/17 02:03:49;;;;;;;151.57;29.48;;;;;;;;;;4995962;28;20232;-50
2022/05/17 02:06:15;;;;;;;120.80;25.63;;;;;;;;;;4996602;28;20224;-49
2022/05/17 02:08:40;;;;;;;209.93;39.47;;;;;;;;;;5000074;28;20625;-51
2022/05/17 02:11:06;;;;;;;126.22;25.95;;;;;;;;;;4996441;28;20204;-51
2022/05/17 02:13:33;;;;;;;179.25;33.95;;;;;;;;;;4988475;28;20209;-51
2022/05/17 02:15:59;;;;;;;166.07;31.38;;;;;;;;;;4988682;28;20351;-49
2022/05/17 02:18:24;;;;;;;235.82;44.78;;;;;;;;;;4987372;28;20277;-50
2022/05/17 02:20:50;;;;;;;174.90;33.63;;;;;;;;;;4996083;28;20951;-51
2022/05/17 02:23:16;;;;;;;136.88;29.80;;;;;;;;;;4996458;28;20216;-51
2022/05/17 02:25:42;;;;;;;223.20;42.45;;;;;;;;;;4989834;28;20314;-50
2022/05/17 02:28:10;;;;;;;243.13;45.33;;;;;;;;;;4993066;28;20575;-51
2022/05/17 02:30:36;;;;;;;163.18;31.40;;;;;;;;;;4988354;28;20323;-51
2022/05/17 02:33:03;;;;;;;87.88;21.05;;;;;;;;;;4997313;28;20965;-51
2022/05/17 02:35:29;;;;;;;159.15;31.02;;;;;;;;;;4998098;28;20521;-51
2022/05/17 02:37:55;;;;;;;178.27;35.67;;;;;;;;;;4993037;28;20232;-49
2022/05/17 02:40:20;;;;;;;141.25;29.95;;;;;;;;;;5004253;28;20311;-50
2022/05/17 02:42:46;;;;;;;197.38;38.38;;;;;;;;;;4992494;28;20408;-51
2022/05/17 02:45:12;;;;;;;305.58;55.65;;;;;;;;;;4990139;28;20298;-51
2022/05/17 02:47:38;;;;;;;177.27;34.33;;;;;;;;;;5001597;28;20210;-51
2022/05/17 02:50:04;;;;;;;191.20;36.65;;;;;;;;;;4995408;28;20225;-51
2022/05/17 02:52:30;;;;;;;226.18;43.05;;;;;;;;;;5001376;28;20404;-49
2022/05/17 02:54:56;;;;;;;130.93;27.80;;;;;;;;;;5001454;28;20761;-51
2022/05/17 02:57:22;;;;;;;151.40;30.65;;;;;;;;;;4992294;28;20693;-51
2022/05/17 02:59:48;;;;;;;159.45;29.05;;;;;;;;;;4988495;28;20201;-51
2022/05/17 03:02:14;;;;;;;134.82;26.88;;;;;;;;;;4997637;28;20303;-51
2022/05/17 03:04:41;;;;;;;174.40;31.38;;;;;;;;;;4991850;28;20537;-51
2022/05/17 03:07:07;;;;;;;128.25;26.30;;;;;;;;;;4994445;28;20205;-51
2022/05/17 03:09:33;;;;;;;235.50;43.22;;;;;;;;;;4995483;28;20800;-49
2022/05/17 03:11:59;;;;;;;182.48;36.33;;;;;;;;;;4989526;28;20259;-51
2022/05/17 03:14:25;;;;;;;187.40;36.13;;;;;;;;;;4987378;28;20208;-51
2022/05/17 03:16:50;;;;;;;103.65;21.25;;;;;;;;;;4998008;28;20221;-50
2022/05/17 03:19:17;;;;;;;154.15;31.20;;;;;;;;;;5005766;28;20255;-51
2022/05/17 03:21:43;;;;;;;172.05;33.58;;;;;;;;;;4985180;28;20692;-51
2022/05/17 03:24:09;;;;;;;185.43;35.80;;;;;;;;;;4995981;28;20224;-50
2022/05/17 03:26:35;;;;;;;193.20;37.78;;;;;;;;;;4991709;28;20713;-49
2022/05/17 03:29:01;;;;;;;150.98;31.48;;;;;;;;;;4989383;28;20216;-52
2022/05/17 03:31:27;;;;;;;213.77;42.22;;;;;;;;;;4989632;28;20286;-51
2022/05/17 03:33:53;;;;;;;169.65;33.58;;;;;;;;;;4991101;28;20234;-51
2022/05/17 03:36:19;;;;;;;155.18;31.48;;;;;;;;;;4998420;28;20916;-51
2022/05/17 03:38:45;;;;;;;225.82;43.92;;;;;;;;;;4992837;28;20242;-51
2022/05/17 03:41:12;;;;;;;145.57;29.13;;;;;;;;;;4993462;28;20177;-51
2022/05/17 03:43:38;;;;;;;247.63;43.75;;;;;;;;;;4985516;28;23330;-51
2022/05/17 03:46:06;;;;;;;191.63;35.25;;;;;;;;;;4989705;28;20220;-50
2022/05/17 03:48:32;;;;;;;157.95;31.92;;;;;;;;;;4985951;28;20339;-50
2022/05/17 03:50:58;;;;;;;135.00;27.42;;;;;;;;;;4994788;28;20268;-51
2022/05/17 03:53:24;;;;;;;109.88;23.77;;;;;;;;;;5003886;28;20965;-51
2022/05/17 03:55:50;;;;;;;162.90;30.63;;;;;;;;;;4990977;28;20245;-51
2022/05/17 03:58:16;;;;;;;170.25;31.95;;;;;;;;;;4993260;28;20765;-51
2022/05/17 04:00:42;;;;;;;204.73;36.80;;;;;;;;;;4993778;28;20247;-49
2022/05/17 04:03:08;;;;;;;146.02;29.77;;;;;;;;;;4985949;28;20228;-49
2022/05/17 04:05:34;;;;;;;178.48;34.55;;;;;;;;;;4992931;28;20189;-51
2022/05/17 04:08:00;;;;;;;131.90;26.45;;;;;;;;;;4995496;28;20227;-51
2022/05/17 04:10:26;;;;;;;97.55;21.10;;;;;;;;;;4992348;28;20551;-50
2022/05/17 04:12:52;;;;;;;167.73;32.20;;;;;;;;;;4995626;28;20250;-51
2022/05/17 04:15:20;;;;;;;196.20;36.22;;;;;;;;;;4990287;28;20212;-51
2022/05/17 04:17:46;;;;;;;109.78;23.13;;;;;;;;;;4999426;28;20243;-50
2022/05/17 04:20:13;;;;;;;120.47;24.25;;;;;;;;;;5002090;28;20883;-50
2022/05/17 04:22:46;;;;;;;101.03;22.92;;;;;;;;;;4998202;28;20229;-50
2022/05/17 04:25:12;;;;;;;118.65;25.98;;;;;;;;;;4991719;28;20366;-50
2022/05/17 04:27:38;;;;;;;208.35;39.13;;;;;;;;;;4989773;28;20738;-51
2022/05/17 04:30:05;;;;;;;135.90;27.10;;;;;;;;;;4985847;28;20216;-51
2022/05/17 04:32:31;;;;;;;140.50;26.60;;;;;;;;;;5000959;28;20209;-49
2022/05/17 04:34:59;;;;;;;155.40;30.95;;;;;;;;;;5001306;28;20275;-50
2022/05/17 04:37:25;;;;;;;186.02;36.50;;;;;;;;;;4997250;28;20251;-50
2022/05/17 04:39:51;;;;;;;269.52;51.45;;;;;;;;;;4991583;28;20323;-51
2022/05/17 04:42:17;;;;;;;118.75;25.67;;;;;;;;;;4988337;28;20937;-50
2022/05/17 04:44:43;;;;;;;245.45;46.67;;;;;;;;;;4988639;28;20245;-50
2022/05/17 04:47:09;;;;;;;102.70;22.10;;;;;;;;;;4993736;28;20219;-51
2022/05/17 04:49:35;;;;;;;112.55;25.23;;;;;;;;;;5004300;28;20727;-50
2022/05/17 04:52:01;;;;;;;159.10;34.47;;;;;;;;;;4998140;28;20216;-51
2022/05/17 04:54:27;;;;;;;107.82;24.63;;;;;;;;;;5001973;28;20212;-50
2022/05/17 04:56:54;;;;;;;158.45;31.65;;;;;;;;;;5001950;28;20251;-50
2022/05/17 04:59:20;;;;;;;98.15;22.20;;;;;;;;;;4996870;28;20205;-51
2022/05/17 05:01:46;;;;;;;233.90;44.10;;;;;;;;;;4998408;28;20267;-50
2022/05/17 05:04:12;;;;;;;99.68;22.40;;;;;;;;;;5003666;28;20546;-51
2022/05/17 05:06:38;;;;;;;119.07;26.08;;;;;;;;;;4994235;28;20216;-52
2022/05/17 05:09:04;;;;;;;93.57;22.05;;;;;;;;;;5009031;28;20219;-52
2022/05/17 05:11:30;;;;;;;153.18;31.27;;;;;;;;;;5002580;28;20180;-52
2022/05/17 05:13:56;;;;;;;169.55;34.08;;;;;;;;;;4996204;28;20220;-52
2022/05/17 05:16:22;;;;;;;135.98;29.35;;;;;;;;;;5006458;28;20238;-51
2022/05/17 05:18:48;;;;;;;103.60;23.17;;;;;;;;;;5005313;28;20813;-51
2022/05/17 05:21:15;;;;;;;109.65;25.27;;;;;;;;;;5000707;28;20307;-52
2022/05/17 05:23:42;;;;;;;292.08;54.42;;;;;;;;;;4976099;28;20534;-52
2022/05/17 05:26:09;;;;;;;144.52;29.48;;;;;;;;;;4993462;28;20256;-51
2022/05/17 05:28:36;;;;;;;159.95;29.85;;;;;;;;;;4992946;28;20286;-51
2022/05/17 05:31:03;;;;;;;150.15;29.48;;;;;;;;;;5000638;28;20225;-52
2022/05/17 05:33:30;;;;;;;194.50;35.53;;;;;;;;;;4989227;28;20227;-51
2022/05/17 05:35:56;;;;;;;181.95;33.75;;;;;;;;;;4990790;28;20224;-52
2022/05/17 05:38:22;;;;;;;147.35;29.05;;;;;;;;;;4995966;28;20283;-53
2022/05/17 05:40:48;;;;;;;201.57;36.92;;;;;;;;;;4991908;28;20228;-51
2022/05/17 05:43:14;;;;;;;130.98;26.15;;;;;;;;;;4997366;28;20225;-52
2022/05/17 05:45:41;;;;;;;204.07;38.88;;;;;;;;;;4991107;28;20205;-52
2022/05/17 05:48:07;;;;;;;173.75;51.22;;;;;;;;;;4994234;28;22553;-50
2022/05/17 05:50:34;;;;;;;238.30;59.25;;;;;;;;;;4992307;28;20177;-51
2022/05/17 05:53:08;;;;;;;187.88;52.70;;;;;;;;;;4990269;28;20223;-52
2022/05/17 05:55:36;;;;;;;155.02;53.33;;;;;;;;;;4983714;28;20665;-53
2022/05/17 05:58:03;;;;;;;145.95;38.25;;;;;;;;;;4986444;28;21027;-53
2022/05/17 06:00:29;;;;;;;214.32;52.53;;;;;;;;;;4998926;28;20232;-52
2022/05/17 06:02:55;;;;;;;168.73;42.50;;;;;;;;;;5001044;28;22672;-52
2022/05/17 06:05:23;;;;;;;335.48;75.95;;;;;;;;;;4993518;28;20770;-51
2022/05/17 06:07:49;;;;;;;264.27;63.80;;;;;;;;;;4988900;28;23939;-51
2022/05/17 06:10:16;;;;;;;218.50;54.03;;;;;;;;;;4997298;28;20251;-52
2022/05/17 06:12:42;;;;;;;286.48;72.57;;;;;;;;;;4990059;28;20243;-50
2022/05/17 06:15:09;;;;;;;156.50;45.63;;;;;;;;;;4983452;28;20271;-51
2022/05/17 06:17:36;;;;;;;180.48;53.22;;;;;;;;;;5000102;28;21243;-51
2022/05/17 06:20:01;;;;;;;220.05;66.55;;;;;;;;;;4972525;28;20566;-50
2022/05/17 06:22:28;;;;;;;143.35;45.75;;;;;;;;;;4988210;28;20216;-51
2022/05/17 06:24:54;;;;;;;286.52;83.57;;;;;;;;;;4987588;28;20250;-52
2022/05/17 06:27:20;;;;;;;245.15;75.95;;;;;;;;;;4998649;28;20593;-51
2022/05/17 06:29:46;;;;;;;209.55;70.72;;;;;;;;;;4987899;28;20203;-51
2022/05/17 06:32:13;;;;;;;168.32;60.60;;;;;;;;;;5000354;28;20726;-50
2022/05/17 06:34:39;;;;;;;135.18;50.60;;;;;;;;;;4991553;28;20225;-50
2022/05/17 06:37:06;;;;;;;174.80;59.03;;;;;;;;;;4990547;28;20594;-53
2022/05/17 06:39:32;;;;;;;329.58;88.30;;;;;;;;;;4977537;28;20251;-51
2022/05/17 06:41:58;;;;;;;256.40;73.72;;;;;;;;;;4981709;28;20306;-52
2022/05/17 06:44:24;;;;;;;243.82;66.03;;;;;;;;;;5002270;28;20284;-52
2022/05/17 06:46:50;;;;;;;363.50;92.00;;;;;;;;;;4987558;28;20327;-53
2022/05/17 06:49:16;;;;;;;244.95;69.38;;;;;;;;;;4984554;28;20902;-52
2022/05/17 06:51:42;;;;;;;209.98;65.47;;;;;;;;;;4991973;28;20783;-53
2022/05/17 06:54:08;;;;;;;254.88;83.20;;;;;;;;;;4990484;28;20235;-52
2022/05/17 06:56:35;;;;;;;198.73;81.65;;;;;;;;;;4996146;28;20763;-51
2022/05/17 06:59:01;;;;;;;211.93;76.10;;;;;;;;;;4991054;28;20204;-52
2022/05/17 07:01:27;;;;;;;172.85;84.45;;;;;;;;;;4991246;28;20216;-52
2022/05/17 07:03:54;;;;;;;200.82;93.68;;;;;;;;;;5000573;28;20712;-52
2022/05/17 07:06:21;;;;;;;199.80;89.13;;;;;;;;;;5003408;28;20212;-52
2022/05/17 07:08:47;;;;;;;213.60;92.28;;;;;;;;;;4998112;28;20511;-52
2022/05/17 07:13:58;;;;;;;182.93;88.85;;;;;;;;;;5006295;28;20671;-52
2022/05/17 07:16:24;;;;;;;223.18;90.25;;;;;;;;;;5002681;28;20213;-51
2022/05/17 07:18:50;;;;;;;196.20;88.35;;;;;;;;;;5000683;28;20223;-52
2022/05/17 07:21:16;;;;;;;264.25;111.30;;;;;;;;;;4999279;28;20292;-51
2022/05/17 07:23:43;;;;;;;189.18;88.68;;;;;;;;;;4983560;28;20278;-52
2022/05/17 07:26:09;;;;;;;151.75;82.07;;;;;;;;;;5005072;28;20239;-52
2022/05/17 07:28:39;;;;;;;308.40;132.02;;;;;;;;;;5007556;28;20226;-52
2022/05/17 07:31:05;;;;;;;252.55;116.53;;;;;;;;;;4978141;28;21016;-52
2022/05/17 07:33:31;;;;;;;312.63;140.43;;;;;;;;;;4982736;28;20228;-52
2022/05/17 07:35:57;;;;;;;306.33;141.90;;;;;;;;;;4985153;28;20434;-52
2022/05/17 07:38:23;;;;;;;214.38;107.20;;;;;;;;;;5000942;28;20966;-52
2022/05/17 07:40:50;;;;;;;156.98;86.63;;;;;;;;;;5002026;28;20296;-52
2022/05/17 07:43:16;;;;;;;251.88;120.72;;;;;;;;;;4991301;28;20879;-52
2022/05/17 07:45:44;;;;;;;201.05;107.22;;;;;;;;;;5001857;28;20231;-52
2022/05/17 07:48:10;;;;;;;237.05;117.55;;;;;;;;;;4992980;28;20291;-51
2022/05/17 07:50:36;;;;;;;283.75;131.55;;;;;;;;;;4993224;28;20185;-53
2022/05/17 07:53:06;;;;;;;207.05;104.07;;;;;;;;;;4986619;28;20256;-52
2022/05/17 07:55:33;;;;;;;164.75;87.90;;;;;;;;;;4996697;28;20216;-52
2022/05/17 07:57:58;;;;;;;181.38;93.05;;;;;;;;;;4992291;28;20228;-51
2022/05/17 08:00:24;;;;;;;216.45;102.88;;;;;;;;;;4994487;28;20217;-52
2022/05/17 08:02:53;;;;;;;200.20;96.47;;;;;;;;;;4992044;28;20236;-52
2022/05/17 08:05:19;;;;;;;152.93;85.93;;;;;;;;;;5004379;28;20185;-52
2022/05/17 08:07:45;;;;;;;222.75;113.00;;;;;;;;;;5001958;28;20230;-52
2022/05/17 08:10:11;;;;;;;164.82;97.75;;;;;;;;;;4989491;28;20244;-51
2022/05/17 08:12:36;;;;;;;385.50;167.98;;;;;;;;;;4995632;28;20477;-52
2022/05/17 08:15:02;;;;;;;219.48;113.30;;;;;;;;;;4989819;28;20216;-51
2022/05/17 08:17:28;;;;;;;328.88;155.02;;;;;;;;;;4990861;28;20204;-52
2022/05/17 08:19:54;;;;;;;301.38;127.70;;;;;;;;;;4982208;28;20228;-52
2022/05/17 08:22:20;;;;;;;220.38;114.82;;;;;;;;;;4987657;28;20698;-52
2022/05/17 08:27:37;;;;;;;297.30;147.35;;;;;;;;;;4982030;28;20469;-52
2022/05/17 08:30:17;;;;;;;301.48;135.13;;;;;;;;;;4981627;28;20220;-52
2022/05/17 08:35:36;;;;;;;205.45;118.32;;;;;;;;;;5006880;28;20274;-52
2022/05/17 08:38:03;;;;;;;178.40;111.35;;;;;;;;;;5004931;28;20331;-52
2022/05/17 08:40:30;;;;;;;199.45;117.05;;;;;;;;;;5004307;28;20235;-51
2022/05/17 08:43:05;;;;;;;181.02;110.30;;;;;;;;;;5005083;28;20221;-52
2022/05/17 08:45:41;;;;;;;217.27;126.22;;;;;;;;;;5001723;28;20230;-52
2022/05/17 08:48:11;;;;;;;184.43;114.07;;;;;;;;;;5007755;28;20298;-52
2022/05/17 08:50:38;;;;;;;185.73;123.45;;;;;;;;;;5004001;28;20242;-51
2022/05/17 08:53:05;;;;;;;216.57;129.48;;;;;;;;;;5005263;28;20528;-51
2022/05/17 08:55:34;;;;;;;195.50;121.22;;;;;;;;;;5003937;28;20216;-51
2022/05/17 08:58:07;;;;;;;189.73;118.30;;;;;;;;;;5003198;28;20744;-52
2022/05/17 09:00:39;;;;;;;243.68;138.85;;;;;;;;;;4990405;28;20255;-52
2022/05/17 09:03:14;;;;;;;249.63;137.45;;;;;;;;;;4998466;28;20220;-52
2022/05/17 09:05:47;;;;;;;203.88;128.73;;;;;;;;;;5004012;28;20210;-52
2022/05/17 09:08:13;;;;;;;251.77;142.60;;;;;;;;;;5003493;28;20200;-51
2022/05/17 09:10:50;;;;;;;231.45;137.00;;;;;;;;;;5008998;28;20311;-52
2022/05/17 09:13:24;;;;;;;195.65;128.25;;;;;;;;;;5012913;28;20231;-51
2022/05/17 09:15:51;;;;;;;244.15;143.40;;;;;;;;;;4992295;28;20215;-52
2022/05/17 09:18:18;;;;;;;274.08;158.70;;;;;;;;;;4982077;28;20530;-52
2022/05/17 09:20:44;;;;;;;356.83;185.20;;;;;;;;;;4980979;28;20724;-51
2022/05/17 09:23:11;;;;;;;265.55;156.70;;;;;;;;;;4988208;28;20228;-52
2022/05/17 09:25:52;;;;;;;302.95;163.75;;;;;;;;;;4981216;28;20319;-52
2022/05/17 09:28:20;;;;;;;241.93;138.50;;;;;;;;;;4997756;28;20251;-52
2022/05/17 09:30:46;;;;;;;378.13;189.00;;;;;;;;;;5000135;28;20821;-52
2022/05/17 09:33:17;;;;;;;216.70;132.15;;;;;;;;;;5004118;28;20248;-53
2022/05/17 09:36:00;;;;;;;268.23;155.77;;;;;;;;;;4995595;28;20209;-52
2022/05/17 09:38:29;;;;;;;258.95;154.45;;;;;;;;;;5000156;28;20211;-52
2022/05/17 09:40:57;;;;;;;255.60;151.13;;;;;;;;;;5009361;28;20652;-52
2022/05/17 09:43:44;;;;;;;206.85;139.57;;;;;;;;;;5006000;28;20223;-52
2022/05/17 09:46:11;;;;;;;208.18;143.77;;;;;;;;;;5004936;28;20219;-52
2022/05/17 09:54:31;;;;;;;242.68;160.45;;;;;;;;;;5012359;28;20310;-52
2022/05/17 09:57:13;;;;;;;231.40;158.63;;;;;;;;;;5008900;28;20533;-51
2022/05/17 09:59:38;;;;;;;204.52;159.02;;;;;;;;;;5007801;28;20428;-53
2022/05/17 10:02:05;;;;;;;260.05;179.13;;;;;;;;;;5011402;28;20765;-51
2022/05/17 10:04:31;;;;;;;215.93;159.32;;;;;;;;;;5011120;28;20296;-52
2022/05/17 10:06:58;;;;;;;234.60;163.40;;;;;;;;;;5009104;28;20220;-52
2022/05/17 10:09:32;;;;;;;239.52;167.63;;;;;;;;;;5007097;28;20215;-53
2022/05/17 10:12:04;;;;;;;204.65;152.38;;;;;;;;;;5006098;28;20496;-52
2022/05/17 10:14:34;;;;;;;407.00;236.60;;;;;;;;;;4995620;28;20177;-52
2022/05/17 10:17:06;;;;;;;244.25;169.55;;;;;;;;;;4982337;28;20224;-53
2022/05/17 10:19:39;;;;;;;316.08;182.23;;;;;;;;;;4983711;28;20309;-52
2022/05/17 10:22:25;;;;;;;299.48;176.30;;;;;;;;;;4994257;28;20223;-52
2022/05/17 10:24:57;;;;;;;318.85;175.38;;;;;;;;;;4985672;28;20220;-54
2022/05/17 10:27:30;;;;;;;277.83;184.05;;;;;;;;;;4997472;28;20298;-52
2022/05/17 10:29:58;;;;;;;208.25;156.25;;;;;;;;;;4996736;28;20552;-51
2022/05/17 10:32:33;;;;;;;378.38;229.13;;;;;;;;;;4997417;28;20197;-54
2022/05/17 10:35:01;;;;;;;270.70;183.32;;;;;;;;;;5000015;28;20237;-52
2022/05/17 10:37:36;;;;;;;370.63;225.25;;;;;;;;;;5000547;28;20235;-54
2022/05/17 10:40:10;;;;;;;241.38;184.27;;;;;;;;;;4987910;28;20230;-50
2022/05/17 10:42:38;;;;;;;198.90;168.00;;;;;;;;;;5002155;28;20221;-50
2022/05/17 10:45:05;;;;;;;309.95;217.27;;;;;;;;;;4999837;28;20223;-50
2022/05/17 10:47:53;;;;;;;322.52;220.93;;;;;;;;;;4989834;28;20288;-53
2022/05/17 10:50:23;;;;;;;348.30;234.90;;;;;;;;;;4998885;28;20610;-53
2022/05/17 10:52:57;;;;;;;321.45;227.82;;;;;;;;;;4993048;28;20216;-50
2022/05/17 10:55:38;;;;;;;310.85;225.32;;;;;;;;;;5001758;28;20272;-53
2022/05/17 10:58:23;;;;;;;361.95;249.68;;;;;;;;;;4993366;28;20298;-53
2022/05/17 11:00:59;;;;;;;320.80;221.77;;;;;;;;;;4996877;28;20227;-52
2022/05/17 11:03:44;;;;;;;317.92;229.48;;;;;;;;;;4989309;28;20708;-54
2022/05/17 11:06:19;;;;;;;334.38;238.85;;;;;;;;;;4985803;28;20216;-53
2022/05/17 11:09:10;;;;;;;325.35;237.52;;;;;;;;;;4987007;28;20195;-53
2022/05/17 11:11:44;;;;;;;366.50;252.25;;;;;;;;;;4987812;28;20180;-52
2022/05/17 11:14:28;;;;;;;361.95;251.77;;;;;;;;;;4987082;28;20173;-53
2022/05/17 11:17:09;;;;;;;384.17;259.75;;;;;;;;;;4984265;28;20938;-52
2022/05/17 11:19:50;;;;;;;381.80;265.38;;;;;;;;;;4992097;28;20239;-53
2022/05/17 11:22:48;;;;;;;358.65;256.42;;;;;;;;;;4998619;28;20664;-53
2022/05/17 11:25:30;;;;;;;380.83;264.63;;;;;;;;;;4963701;28;20812;-53
2022/05/17 11:28:31;;;;;;;327.40;248.27;;;;;;;;;;4994327;28;20223;-52
2022/05/17 11:31:09;;;;;;;390.83;275.50;;;;;;;;;;4960370;28;20215;-52
2022/05/17 11:33:39;;;;;;;398.73;274.88;;;;;;;;;;4999626;28;20219;-52
2022/05/17 11:36:05;;;;;;;391.67;270.75;;;;;;;;;;4985833;28;20685;-52
2022/05/17 11:38:37;;;;;;;451.08;286.05;;;;;;;;;;4980403;28;20196;-52
2022/05/17 11:41:09;;;;;;;299.08;235.18;;;;;;;;;;4991001;28;20176;-52
2022/05/17 11:43:40;;;;;;;290.70;236.32;;;;;;;;;;4998490;28;20256;-52
2022/05/17 11:46:06;;;;;;;351.50;266.17;;;;;;;;;;4988745;28;20466;-53
2022/05/17 11:48:45;;;;;;;380.00;270.33;;;;;;;;;;4996505;28;20798;-53
2022/05/17 11:51:11;;;;;;;345.73;254.00;;;;;;;;;;4988036;28;20223;-52
2022/05/17 11:53:48;;;;;;;358.77;263.73;;;;;;;;;;5001334;28;20642;-53
2022/05/17 11:56:19;;;;;;;421.38;303.77;;;;;;;;;;4993262;28;20754;-51
2022/05/17 11:58:46;;;;;;;403.40;295.15;;;;;;;;;;4987937;28;20661;-54
2022/05/17 12:01:31;;;;;;;369.65;291.90;;;;;;;;;;4988426;28;20890;-52
2022/05/17 12:04:03;;;;;;;376.00;294.55;;;;;;;;;;4991091;28;20340;-52
2022/05/17 12:06:48;;;;;;;378.38;296.13;;;;;;;;;;4994508;28;20806;-53
2022/05/17 12:09:23;;;;;;;454.10;330.08;;;;;;;;;;4979484;28;20213;-52
2022/05/17 12:12:16;;;;;;;431.95;312.02;;;;;;;;;;4994841;28;20206;-52
2022/05/17 12:15:01;;;;;;;443.83;306.25;;;;;;;;;;4982301;28;20432;-53
2022/05/17 12:17:31;;;;;;;503.75;346.58;;;;;;;;;;4984322;28;20259;-53
2022/05/17 12:20:12;;;;;;;474.73;330.70;;;;;;;;;;4981765;28;20878;-53
2022/05/17 12:22:56;;;;;;;518.00;342.90;;;;;;;;;;4989669;28;20250;-53
2022/05/17 12:25:25;;;;;;;452.58;326.05;;;;;;;;;;4982649;28;20428;-53
2022/05/17 12:27:51;;;;;;;443.98;314.83;;;;;;;;;;4994736;28;20293;-52
2022/05/17 12:33:22;;;;;;;443.77;298.55;;;;;;;;;;4997669;28;22531;-53
2022/05/17 12:35:48;;;;;;;541.17;338.70;;;;;;;;;;4989159;28;20195;-53
2022/05/17 12:44:06;;;;;;;459.08;309.70;;;;;;;;;;4992917;28;20227;-53
2022/05/17 12:46:36;;;;;;;404.92;293.10;;;;;;;;;;5003487;28;20269;-52
2022/05/17 12:49:11;;;;;;;510.92;329.85;;;;;;;;;;4990595;28;20282;-53
2022/05/17 12:51:37;;;;;;;482.48;322.20;;;;;;;;;;4991805;28;20621;-53
2022/05/17 12:54:09;;;;;;;424.20;295.17;;;;;;;;;;4991750;28;20209;-52
2022/05/17 12:56:37;;;;;;;452.27;292.50;;;;;;;;;;5002306;28;21118;-53
2022/05/17 12:59:04;;;;;;;362.42;274.35;;;;;;;;;;4983505;28;20677;-53
2022/05/17 13:01:35;;;;;;;423.42;302.05;;;;;;;;;;4993484;28;20221;-53
2022/05/17 13:04:09;;;;;;;503.95;337.33;;;;;;;;;;4992398;28;20248;-53
2022/05/17 13:06:37;;;;;;;276.73;234.63;;;;;;;;;;4997786;28;20212;-53
2022/05/17 13:09:05;;;;;;;119.05;34.72;;;;;;;;;;5008900;28;20215;-52
2022/05/17 13:11:32;;;;;;;126.10;35.50;;;;;;;;;;5009742;28;20188;-52
2022/05/17 13:14:09;;;;;;;289.60;77.15;;;;;;;;;;4998449;28;20229;-52
2022/05/17 13:16:37;;;;;;;151.45;42.25;;;;;;;;;;5003392;28;20236;-52
2022/05/17 13:19:07;;;;;;;141.68;41.15;;;;;;;;;;5004456;28;20214;-53
2022/05/17 13:21:35;;;;;;;140.50;40.90;;;;;;;;;;5000859;28;20209;-53
2022/05/17 13:24:02;;;;;;;199.73;50.47;;;;;;;;;;4988769;28;20529;-54
2022/05/17 13:26:30;;;;;;;173.57;45.85;;;;;;;;;;5014891;28;20192;-52
2022/05/17 13:28:56;;;;;;;204.90;53.90;;;;;;;;;;4998905;28;20362;-52
2022/05/17 13:31:26;;;;;;;190.40;50.63;;;;;;;;;;5002760;28;20221;-52
2022/05/17 13:34:15;;;;;;;166.43;46.08;;;;;;;;;;5011758;28;20653;-52
2022/05/17 13:36:42;;;;;;;359.27;93.13;;;;;;;;;;4993895;28;20235;-53
2022/05/17 13:39:18;;;;;;;181.68;51.38;;;;;;;;;;4998768;28;20224;-53
2022/05/17 13:41:44;;;;;;;152.55;40.95;;;;;;;;;;5004922;28;20245;-52
2022/05/17 13:44:24;;;;;;;177.10;49.00;;;;;;;;;;4998277;28;20296;-53
2022/05/17 13:46:50;;;;;;;264.27;69.72;;;;;;;;;;4991681;28;20508;-52
2022/05/17 13:49:21;;;;;;;187.85;49.47;;;;;;;;;;4991463;28;20213;-53
2022/05/17 13:52:00;;;;;;;140.73;39.08;;;;;;;;;;5002672;28;20673;-53
2022/05/17 13:54:26;;;;;;;148.02;41.63;;;;;;;;;;5005726;28;20217;-53
2022/05/17 13:56:55;;;;;;;186.80;49.17;;;;;;;;;;4998530;28;20307;-53
2022/05/17 13:59:22;;;;;;;214.68;57.97;;;;;;;;;;4996601;28;20273;-53
2022/05/17 14:02:01;;;;;;;162.82;47.67;;;;;;;;;;5002140;28;20223;-52
2022/05/17 14:04:38;;;;;;;167.00;48.60;;;;;;;;;;4999174;28;20581;-53
2022/05/17 14:07:20;;;;;;;241.38;70.72;;;;;;;;;;4992481;28;20217;-52
2022/05/17 14:13:08;;;;;;;151.07;48.58;;;;;;;;;;5002640;28;20219;-53
2022/05/17 14:15:34;;;;;;;178.02;61.92;;;;;;;;;;5003016;28;20534;-53
2022/05/17 14:18:00;;;;;;;150.38;58.15;;;;;;;;;;4996606;28;20730;-53
2022/05/17 14:20:27;;;;;;;190.32;77.65;;;;;;;;;;5003255;28;21201;-53
2022/05/17 14:22:56;;;;;;;190.52;80.40;;;;;;;;;;5011751;28;20221;-52
2022/05/17 14:25:22;;;;;;;189.20;109.30;;;;;;;;;;5010338;28;20351;-53
2022/05/17 14:27:48;;;;;;;124.32;65.93;;;;;;;;;;5009494;28;20518;-53
2022/05/17 14:30:14;;;;;;;305.60;156.75;;;;;;;;;;5013828;28;20263;-54
2022/05/17 14:32:41;;;;;;;173.68;140.80;;;;;;;;;;4993893;28;20207;-54
2022/05/17 14:35:07;;;;;;;237.50;178.88;;;;;;;;;;4993623;28;20265;-54
2022/05/17 14:37:33;;;;;;;249.32;224.73;;;;;;;;;;5006816;28;20225;-54